Time;durP1;ratioP1;P1;durP2;ratioP2;P2;SDS_P1;SDS_P2;PMS_P1;PMS_P2;Temp;Humidity;BMP_temperature;BMP_pressure;BME280_temperature;BME280_humidity;BME280_pressure;Samples;Min_cycle;Max_cycle;Signal;HPM_P1;HPM_P2
2023/10/20 00:01:52;;;;;;;2.47;1.00;;;;;;;;;;5055264;28;20033;-70
2023/10/20 00:04:18;;;;;;;8.65;1.20;;;;;;;;;;5054843;28;20023;-69
2023/10/20 00:06:45;;;;;;;2.35;1.10;;;;;;;;;;5054861;28;20029;-70
2023/10/20 00:09:14;;;;;;;5.22;0.80;;;;;;;;;;5055010;28;20029;-70
2023/10/20 00:11:45;;;;;;;3.92;0.75;;;;;;;;;;5054200;28;20021;-70
2023/10/20 00:14:11;;;;;;;2.30;0.80;;;;;;;;;;5055058;28;20017;-70
2023/10/20 00:16:38;;;;;;;2.50;0.80;;;;;;;;;;5054722;28;20025;-69
2023/10/20 00:19:04;;;;;;;2.90;0.90;;;;;;;;;;5054403;28;20017;-69
2023/10/20 00:21:31;;;;;;;8.02;1.15;;;;;;;;;;5054544;28;20036;-70
2023/10/20 00:23:59;;;;;;;4.28;0.80;;;;;;;;;;5054552;28;20032;-69
2023/10/20 00:26:26;;;;;;;5.18;0.90;;;;;;;;;;5054643;28;20481;-69
2023/10/20 00:28:52;;;;;;;4.50;0.80;;;;;;;;;;5054578;28;20025;-70
2023/10/20 00:31:19;;;;;;;4.45;1.50;;;;;;;;;;5054283;28;20016;-69
2023/10/20 00:33:50;;;;;;;6.28;1.20;;;;;;;;;;5053954;28;20036;-70
2023/10/20 00:36:17;;;;;;;1.95;0.98;;;;;;;;;;5054533;28;20013;-70
2023/10/20 00:38:43;;;;;;;3.75;0.95;;;;;;;;;;5054581;28;20021;-69
2023/10/20 00:41:14;;;;;;;3.20;1.05;;;;;;;;;;5054200;28;20508;-70
2023/10/20 00:43:41;;;;;;;6.07;1.00;;;;;;;;;;5054509;28;20029;-69
2023/10/20 00:46:08;;;;;;;3.10;0.80;;;;;;;;;;5054324;28;20393;-69
2023/10/20 00:48:39;;;;;;;0.73;0.70;;;;;;;;;;5053702;28;20044;-70
2023/10/20 00:51:06;;;;;;;2.70;0.70;;;;;;;;;;5053961;28;20389;-69
2023/10/20 00:53:38;;;;;;;4.18;0.70;;;;;;;;;;5053967;28;20493;-70
2023/10/20 00:56:05;;;;;;;2.90;0.95;;;;;;;;;;5052688;28;20041;-69
2023/10/20 00:58:32;;;;;;;3.25;0.70;;;;;;;;;;5053888;28;20033;-69
2023/10/20 01:01:01;;;;;;;2.78;0.70;;;;;;;;;;5053696;28;20485;-69
2023/10/20 01:03:30;;;;;;;2.25;0.50;;;;;;;;;;5053510;28;20021;-69
2023/10/20 01:05:56;;;;;;;3.53;0.60;;;;;;;;;;5053766;28;20039;-69
2023/10/20 01:08:23;;;;;;;1.85;0.60;;;;;;;;;;5052790;28;20028;-69
2023/10/20 01:10:49;;;;;;;1.17;0.40;;;;;;;;;;5053800;28;20033;-69
2023/10/20 01:13:16;;;;;;;0.63;0.40;;;;;;;;;;5053630;28;20024;-70
2023/10/20 01:15:42;;;;;;;0.55;0.50;;;;;;;;;;5053719;28;20040;-69
2023/10/20 01:18:10;;;;;;;3.92;0.47;;;;;;;;;;5053230;28;20021;-69
2023/10/20 01:20:37;;;;;;;1.35;0.65;;;;;;;;;;5053334;28;20040;-69
2023/10/20 01:23:03;;;;;;;3.17;0.70;;;;;;;;;;5053445;28;20074;-70
2023/10/20 01:25:31;;;;;;;3.63;0.45;;;;;;;;;;5053416;28;20032;-69
2023/10/20 01:27:58;;;;;;;5.30;0.70;;;;;;;;;;5053270;28;20029;-70
2023/10/20 01:30:25;;;;;;;2.17;0.65;;;;;;;;;;5052985;28;20044;-70
2023/10/20 01:32:51;;;;;;;1.88;0.50;;;;;;;;;;5053544;28;20035;-70
2023/10/20 01:35:17;;;;;;;1.95;0.60;;;;;;;;;;5053483;28;20070;-69
2023/10/20 01:37:44;;;;;;;3.00;0.95;;;;;;;;;;5053363;28;20031;-69
2023/10/20 01:40:12;;;;;;;2.67;0.60;;;;;;;;;;5053176;28;20043;-69
2023/10/20 01:42:38;;;;;;;1.65;0.60;;;;;;;;;;5053127;28;20486;-69
2023/10/20 01:45:05;;;;;;;2.65;0.60;;;;;;;;;;5052640;28;20351;-70
2023/10/20 01:47:31;;;;;;;1.65;0.70;;;;;;;;;;5053046;28;20023;-69
2023/10/20 01:49:58;;;;;;;5.25;0.95;;;;;;;;;;5052960;28;20507;-69
2023/10/20 01:52:24;;;;;;;1.45;0.70;;;;;;;;;;5052844;28;20029;-69
2023/10/20 01:54:50;;;;;;;2.35;0.65;;;;;;;;;;5052868;28;20021;-70
2023/10/20 01:57:17;;;;;;;2.65;0.70;;;;;;;;;;5052709;28;20045;-69
2023/10/20 01:59:43;;;;;;;2.20;0.73;;;;;;;;;;5052405;28;20090;-69
2023/10/20 02:02:10;;;;;;;3.10;0.90;;;;;;;;;;5052618;28;20028;-69
2023/10/20 02:04:36;;;;;;;1.17;0.70;;;;;;;;;;5052803;28;20025;-69
2023/10/20 02:07:03;;;;;;;2.45;0.57;;;;;;;;;;5052715;28;20033;-69
2023/10/20 02:09:31;;;;;;;2.53;0.68;;;;;;;;;;5052879;28;20107;-69
2023/10/20 02:11:58;;;;;;;2.88;0.80;;;;;;;;;;5052679;28;20024;-69
2023/10/20 02:14:25;;;;;;;4.60;1.10;;;;;;;;;;5052536;28;20029;-69
2023/10/20 02:16:52;;;;;;;1.85;0.77;;;;;;;;;;5052799;28;20380;-69
2023/10/20 02:19:18;;;;;;;2.95;0.70;;;;;;;;;;5052693;28;20029;-69
2023/10/20 02:21:47;;;;;;;0.75;0.60;;;;;;;;;;5052363;28;20489;-69
2023/10/20 02:24:13;;;;;;;5.88;0.70;;;;;;;;;;5052727;28;20017;-69
2023/10/20 02:26:40;;;;;;;1.55;0.75;;;;;;;;;;5052526;28;20031;-69
2023/10/20 02:29:07;;;;;;;1.90;0.82;;;;;;;;;;5051030;28;20062;-70
2023/10/20 02:31:33;;;;;;;3.33;0.82;;;;;;;;;;5051148;28;20047;-69
2023/10/20 02:33:59;;;;;;;2.25;1.02;;;;;;;;;;5053298;28;20362;-69
2023/10/20 02:36:26;;;;;;;2.05;0.68;;;;;;;;;;5055524;28;20031;-69
2023/10/20 02:38:52;;;;;;;0.60;0.50;;;;;;;;;;5056775;28;20021;-69
2023/10/20 02:41:19;;;;;;;0.90;0.60;;;;;;;;;;5056497;28;20470;-70
2023/10/20 02:43:45;;;;;;;4.50;0.73;;;;;;;;;;5056053;28;20029;-69
2023/10/20 02:46:12;;;;;;;2.15;1.00;;;;;;;;;;5056607;28;20032;-69
2023/10/20 02:48:38;;;;;;;2.05;0.80;;;;;;;;;;5056359;28;20028;-69
2023/10/20 02:51:12;;;;;;;2.17;0.63;;;;;;;;;;5056241;28;20029;-69
2023/10/20 02:53:39;;;;;;;1.00;0.80;;;;;;;;;;5056678;28;20134;-69
2023/10/20 02:56:15;;;;;;;0.90;0.55;;;;;;;;;;5056296;28;20017;-69
2023/10/20 02:58:44;;;;;;;4.28;0.82;;;;;;;;;;5054658;28;20047;-69
2023/10/20 03:01:14;;;;;;;0.73;0.60;;;;;;;;;;5056056;28;20047;-69
2023/10/20 03:03:41;;;;;;;2.42;0.70;;;;;;;;;;5056267;28;20043;-69
2023/10/20 03:06:07;;;;;;;2.35;0.98;;;;;;;;;;5056011;28;20021;-69
2023/10/20 03:08:36;;;;;;;2.67;0.73;;;;;;;;;;5055912;28;20033;-69
2023/10/20 03:11:02;;;;;;;1.85;0.65;;;;;;;;;;5055958;28;20017;-69
2023/10/20 03:13:29;;;;;;;2.75;0.95;;;;;;;;;;5055513;28;20435;-69
2023/10/20 03:15:55;;;;;;;4.30;0.60;;;;;;;;;;5055878;28;20031;-69
2023/10/20 03:18:23;;;;;;;1.60;0.90;;;;;;;;;;5056100;28;20025;-69
2023/10/20 03:20:50;;;;;;;1.52;0.73;;;;;;;;;;5055825;28;20554;-69
2023/10/20 03:23:26;;;;;;;1.42;0.47;;;;;;;;;;5055862;28;20040;-69
2023/10/20 03:25:52;;;;;;;5.10;1.00;;;;;;;;;;5055709;28;20013;-69
2023/10/20 03:28:18;;;;;;;3.78;1.23;;;;;;;;;;5055403;28;20029;-69
2023/10/20 03:30:46;;;;;;;1.75;1.25;;;;;;;;;;5055482;28;20017;-69
2023/10/20 03:33:13;;;;;;;3.22;1.17;;;;;;;;;;5055833;28;20041;-69
2023/10/20 03:35:42;;;;;;;1.58;0.90;;;;;;;;;;5055727;28;20071;-69
2023/10/20 03:38:09;;;;;;;3.20;0.90;;;;;;;;;;5055321;28;20037;-69
2023/10/20 03:40:40;;;;;;;1.70;0.85;;;;;;;;;;5055523;28;20035;-69
2023/10/20 03:43:08;;;;;;;2.25;1.10;;;;;;;;;;5054907;28;20037;-69
2023/10/20 03:45:56;;;;;;;2.42;0.60;;;;;;;;;;5053937;28;20028;-69
2023/10/20 03:48:23;;;;;;;1.88;0.50;;;;;;;;;;5054029;28;20033;-69
2023/10/20 03:50:51;;;;;;;2.03;0.55;;;;;;;;;;5055241;28;20031;-69
2023/10/20 03:53:22;;;;;;;0.75;0.50;;;;;;;;;;5055110;28;20470;-69
2023/10/20 03:55:58;;;;;;;1.33;0.67;;;;;;;;;;5054784;28;20025;-69
2023/10/20 03:58:26;;;;;;;1.77;0.80;;;;;;;;;;5053595;28;20053;-69
2023/10/20 04:00:53;;;;;;;3.80;0.57;;;;;;;;;;5054968;28;20396;-69
2023/10/20 04:03:20;;;;;;;0.57;0.57;;;;;;;;;;5054923;28;20029;-69
2023/10/20 04:05:46;;;;;;;0.80;0.50;;;;;;;;;;5054968;28;20033;-69
2023/10/20 04:08:13;;;;;;;0.70;0.50;;;;;;;;;;5055377;28;20035;-69
2023/10/20 04:10:39;;;;;;;1.00;0.57;;;;;;;;;;5054459;28;20031;-69
2023/10/20 04:13:07;;;;;;;2.10;0.60;;;;;;;;;;5054749;28;20025;-69
2023/10/20 04:15:36;;;;;;;0.50;0.50;;;;;;;;;;5055015;28;20019;-69
2023/10/20 04:18:04;;;;;;;1.15;0.60;;;;;;;;;;5054750;28;20024;-69
2023/10/20 04:20:31;;;;;;;6.72;0.70;;;;;;;;;;5054772;28;20043;-69
2023/10/20 04:22:58;;;;;;;1.42;0.77;;;;;;;;;;5054425;28;20024;-69
2023/10/20 04:25:33;;;;;;;1.95;1.27;;;;;;;;;;5054241;28;20025;-69
2023/10/20 04:41:56;;;;;;;1.65;0.70;;;;;;;;;;5054142;28;20033;-69
2023/10/20 04:58:13;;;;;;;4.03;0.77;;;;;;;;;;5014807;28;20049;-69
2023/10/20 05:05:32;;;;;;;2.03;0.82;;;;;;;;;;5031815;28;20528;-69
2023/10/20 05:08:05;;;;;;;;;;;;;;;;;;5031995;28;20040;-69
2023/10/20 05:10:32;;;;;;;6.07;1.13;;;;;;;;;;5031637;28;19992;-69
2023/10/20 05:12:59;;;;;;;6.38;1.70;;;;;;;;;;5031718;28;20029;-69
2023/10/20 05:15:26;;;;;;;2.10;0.98;;;;;;;;;;5031796;28;20116;-69
2023/10/20 05:17:52;;;;;;;3.03;1.02;;;;;;;;;;5031545;28;20025;-69
2023/10/20 05:20:22;;;;;;;3.63;1.20;;;;;;;;;;5031499;28;20040;-69
2023/10/20 05:22:49;;;;;;;5.55;1.00;;;;;;;;;;5031036;28;20041;-69
2023/10/20 05:25:15;;;;;;;5.47;1.58;;;;;;;;;;5031576;28;20114;-69
2023/10/20 05:27:45;;;;;;;2.50;1.15;;;;;;;;;;5031613;28;20061;-69
2023/10/20 05:30:12;;;;;;;3.85;1.20;;;;;;;;;;5031269;28;20022;-69
2023/10/20 05:32:38;;;;;;;2.92;1.60;;;;;;;;;;5031145;28;20597;-69
2023/10/20 05:35:08;;;;;;;2.17;1.00;;;;;;;;;;5046436;28;20482;-69
2023/10/20 05:37:35;;;;;;;2.00;1.17;;;;;;;;;;5052957;28;20048;-69
2023/10/20 05:40:02;;;;;;;3.60;1.40;;;;;;;;;;5053120;28;20103;-69
2023/10/20 05:42:29;;;;;;;2.83;1.40;;;;;;;;;;5053349;28;20021;-69
2023/10/20 05:45:10;;;;;;;4.00;1.75;;;;;;;;;;5053064;28;20013;-69
2023/10/20 05:47:38;;;;;;;2.97;1.67;;;;;;;;;;5052924;28;20017;-69
2023/10/20 05:50:05;;;;;;;4.75;1.50;;;;;;;;;;5052931;28;20482;-69
2023/10/20 05:52:31;;;;;;;3.92;1.92;;;;;;;;;;5052741;28;20031;-69
2023/10/20 05:54:59;;;;;;;4.82;2.00;;;;;;;;;;5052740;28;20021;-69
2023/10/20 05:57:28;;;;;;;4.28;2.20;;;;;;;;;;5052765;28;20048;-69
2023/10/20 05:59:55;;;;;;;8.27;2.47;;;;;;;;;;5052693;28;20381;-69
2023/10/20 06:02:22;;;;;;;3.65;2.00;;;;;;;;;;5052693;28;20493;-69
2023/10/20 06:04:49;;;;;;;5.90;2.05;;;;;;;;;;5052959;28;20025;-69
2023/10/20 06:07:15;;;;;;;6.65;1.90;;;;;;;;;;5052333;28;20086;-69
2023/10/20 06:09:42;;;;;;;3.15;1.90;;;;;;;;;;5051849;28;20027;-69
2023/10/20 06:12:10;;;;;;;4.63;1.80;;;;;;;;;;5052449;28;20021;-69
2023/10/20 06:14:37;;;;;;;5.35;1.80;;;;;;;;;;5039314;28;20029;-69
2023/10/20 06:17:03;;;;;;;9.13;1.98;;;;;;;;;;5052436;28;20036;-69
2023/10/20 06:19:31;;;;;;;5.10;2.08;;;;;;;;;;5048123;28;20025;-68
2023/10/20 06:21:57;;;;;;;5.57;1.98;;;;;;;;;;5046220;28;20390;-68
2023/10/20 06:24:24;;;;;;;4.93;2.38;;;;;;;;;;5051422;28;20021;-67
2023/10/20 06:26:50;;;;;;;3.75;2.28;;;;;;;;;;5051953;28;20367;-68
2023/10/20 06:29:46;;;;;;;3.90;2.33;;;;;;;;;;5048189;28;20021;-68
2023/10/20 06:34:49;;;;;;;5.07;1.90;;;;;;;;;;5051614;28;20090;-69
2023/10/20 06:37:28;;;;;;;4.90;2.15;;;;;;;;;;5046451;28;20392;-69
2023/10/20 06:39:55;;;;;;;6.72;2.13;;;;;;;;;;5045081;28;20519;-69
2023/10/20 06:42:21;;;;;;;5.25;2.47;;;;;;;;;;5051410;28;20538;-70
2023/10/20 06:44:48;;;;;;;9.98;2.90;;;;;;;;;;5048382;28;20082;-75
2023/10/20 06:47:14;;;;;;;10.52;3.20;;;;;;;;;;5032699;28;20029;-69
2023/10/20 06:49:42;;;;;;;7.40;2.42;;;;;;;;;;5031787;28;20029;-70
2023/10/20 06:52:09;;;;;;;5.25;2.50;;;;;;;;;;5031429;28;20030;-70
2023/10/20 06:54:35;;;;;;;8.80;2.65;;;;;;;;;;5042524;28;20082;-69
2023/10/20 06:57:01;;;;;;;5.60;2.55;;;;;;;;;;5041321;28;20021;-70
2023/10/20 06:59:28;;;;;;;6.40;2.53;;;;;;;;;;5050972;28;20029;-69
2023/10/20 07:02:00;;;;;;;6.40;2.75;;;;;;;;;;5049605;28;20043;-70
2023/10/20 07:04:26;;;;;;;7.35;2.90;;;;;;;;;;5050442;28;20024;-69
2023/10/20 07:06:53;;;;;;;5.70;2.85;;;;;;;;;;5050769;28;20543;-70
2023/10/20 07:09:20;;;;;;;8.45;2.95;;;;;;;;;;5049411;28;20021;-70
2023/10/20 07:11:48;;;;;;;5.20;3.00;;;;;;;;;;5039474;28;20452;-70
2023/10/20 07:14:14;;;;;;;5.35;3.17;;;;;;;;;;5044965;28;20379;-71
2023/10/20 07:16:41;;;;;;;10.00;3.55;;;;;;;;;;5049481;28;20039;-69
2023/10/20 07:19:08;;;;;;;7.07;2.65;;;;;;;;;;5043716;28;20037;-69
2023/10/20 07:21:35;;;;;;;4.07;2.47;;;;;;;;;;5042010;28;20035;-69
2023/10/20 07:24:04;;;;;;;3.60;1.90;;;;;;;;;;5054405;28;20036;-69
2023/10/20 07:26:30;;;;;;;6.20;2.10;;;;;;;;;;5046662;28;20482;-71
2023/10/20 07:28:57;;;;;;;4.32;1.58;;;;;;;;;;5053569;28;20021;-70
2023/10/20 07:31:23;;;;;;;3.63;1.50;;;;;;;;;;5048758;28;20033;-71
2023/10/20 07:33:49;;;;;;;3.33;1.40;;;;;;;;;;5052099;28;20393;-70
2023/10/20 07:36:16;;;;;;;3.00;1.60;;;;;;;;;;5046052;28;20021;-70
2023/10/20 07:38:43;;;;;;;4.10;1.63;;;;;;;;;;5053149;28;20023;-70
2023/10/20 07:41:11;;;;;;;2.63;1.50;;;;;;;;;;5048674;28;20037;-71
2023/10/20 07:43:39;;;;;;;3.80;1.48;;;;;;;;;;5050531;28;20032;-71
2023/10/20 07:46:05;;;;;;;1.40;1.30;;;;;;;;;;5043200;28;20074;-70
2023/10/20 07:48:32;;;;;;;3.15;1.60;;;;;;;;;;5050891;28;20025;-71
2023/10/20 07:51:01;;;;;;;5.32;1.02;;;;;;;;;;5043451;28;20047;-71
2023/10/20 07:53:30;;;;;;;1.90;1.20;;;;;;;;;;5032425;28;20029;-71
2023/10/20 07:55:57;;;;;;;6.00;1.40;;;;;;;;;;5034608;28;20022;-71
2023/10/20 07:58:23;;;;;;;10.85;1.90;;;;;;;;;;5052237;28;20058;-71
2023/10/20 08:00:50;;;;;;;7.32;1.70;;;;;;;;;;5051738;28;20090;-69
2023/10/20 08:03:17;;;;;;;2.53;1.15;;;;;;;;;;5052514;28;20021;-71
2023/10/20 08:05:43;;;;;;;2.95;1.27;;;;;;;;;;5052125;28;20033;-71
2023/10/20 08:08:09;;;;;;;3.75;1.08;;;;;;;;;;5053493;28;20031;-71
2023/10/20 08:10:38;;;;;;;7.53;1.30;;;;;;;;;;5054262;28;20039;-70
2023/10/20 08:13:04;;;;;;;2.85;1.20;;;;;;;;;;5046971;28;20024;-69
2023/10/20 08:15:35;;;;;;;2.58;1.15;;;;;;;;;;5051538;28;20021;-71
2023/10/20 08:18:02;;;;;;;2.33;1.00;;;;;;;;;;5037328;28;20021;-69
2023/10/20 08:20:29;;;;;;;7.15;1.42;;;;;;;;;;5051700;28;20041;-69
2023/10/20 08:22:55;;;;;;;2.95;1.00;;;;;;;;;;5049386;28;20043;-69
2023/10/20 08:25:22;;;;;;;3.35;0.90;;;;;;;;;;5052358;28;20025;-70
2023/10/20 08:27:48;;;;;;;1.58;1.10;;;;;;;;;;5034520;28;20025;-71
2023/10/20 08:30:15;;;;;;;2.83;0.88;;;;;;;;;;5051796;28;20021;-69
2023/10/20 08:32:42;;;;;;;2.05;0.80;;;;;;;;;;5053704;28;20021;-69
2023/10/20 08:35:08;;;;;;;1.05;0.70;;;;;;;;;;5052072;28;20512;-72
2023/10/20 08:37:36;;;;;;;2.38;0.88;;;;;;;;;;5034778;28;20489;-72
2023/10/20 08:40:02;;;;;;;3.10;0.75;;;;;;;;;;5046537;28;20029;-69
2023/10/20 08:42:29;;;;;;;1.23;0.73;;;;;;;;;;5052445;28;20035;-70
2023/10/20 08:44:56;;;;;;;4.22;1.00;;;;;;;;;;5049949;28;20031;-69
2023/10/20 08:47:23;;;;;;;3.92;0.80;;;;;;;;;;5051553;28;20025;-68
2023/10/20 08:49:50;;;;;;;4.22;0.80;;;;;;;;;;5052284;28;20405;-68
2023/10/20 08:52:18;;;;;;;3.45;0.80;;;;;;;;;;5068872;28;20060;-70
2023/10/20 08:54:46;;;;;;;2.22;0.93;;;;;;;;;;5032566;28;20029;-68
2023/10/20 08:57:12;;;;;;;1.10;0.70;;;;;;;;;;5031765;28;20041;-70
2023/10/20 08:59:39;;;;;;;2.00;0.90;;;;;;;;;;5048448;28;20032;-69
2023/10/20 09:02:05;;;;;;;2.58;0.70;;;;;;;;;;5032632;28;20037;-68
2023/10/20 09:04:32;;;;;;;1.58;0.68;;;;;;;;;;5038733;28;20013;-70
2023/10/20 09:07:00;;;;;;;0.75;0.47;;;;;;;;;;5052134;28;20036;-70
2023/10/20 09:09:26;;;;;;;1.70;0.68;;;;;;;;;;5051355;28;20051;-67
2023/10/20 09:11:53;;;;;;;2.72;0.70;;;;;;;;;;5052132;28;20039;-68
2023/10/20 09:14:19;;;;;;;3.40;0.70;;;;;;;;;;5047086;28;20013;-69
2023/10/20 09:16:47;;;;;;;0.75;0.60;;;;;;;;;;5047760;28;20029;-69
2023/10/20 09:19:14;;;;;;;0.60;0.60;;;;;;;;;;5043644;28;20029;-68
2023/10/20 09:21:40;;;;;;;1.48;0.68;;;;;;;;;;5051880;28;20025;-70
2023/10/20 09:24:08;;;;;;;1.80;0.70;;;;;;;;;;5043752;28;20082;-69
2023/10/20 09:26:35;;;;;;;4.68;0.80;;;;;;;;;;5047708;28;20508;-68
2023/10/20 09:29:05;;;;;;;2.00;0.60;;;;;;;;;;5051635;28;20389;-67
2023/10/20 09:31:31;;;;;;;5.18;1.00;;;;;;;;;;5051813;28;20380;-69
2023/10/20 09:33:58;;;;;;;2.78;0.70;;;;;;;;;;5051647;28;20389;-68
2023/10/20 09:36:24;;;;;;;1.63;0.85;;;;;;;;;;5047371;28;20024;-69
2023/10/20 09:38:55;;;;;;;1.10;0.50;;;;;;;;;;5031534;28;20059;-69
2023/10/20 09:41:25;;;;;;;2.53;1.10;;;;;;;;;;5035268;28;20043;-69
2023/10/20 09:44:02;;;;;;;0.85;0.65;;;;;;;;;;5050199;28;20029;-70
2023/10/20 09:46:31;;;;;;;1.23;0.50;;;;;;;;;;5040537;28;20047;-69
2023/10/20 09:49:00;;;;;;;1.58;0.90;;;;;;;;;;5046460;28;20485;-68
2023/10/20 09:51:27;;;;;;;0.60;0.60;;;;;;;;;;5051776;28;20021;-68
2023/10/20 09:53:54;;;;;;;0.80;0.50;;;;;;;;;;5043060;28;20037;-68
2023/10/20 09:56:21;;;;;;;1.58;0.60;;;;;;;;;;5043596;28;20019;-68
2023/10/20 09:58:48;;;;;;;2.70;0.65;;;;;;;;;;5049736;28;20053;-70
2023/10/20 10:01:15;;;;;;;2.88;0.60;;;;;;;;;;5047381;28;20594;-68
2023/10/20 10:03:48;;;;;;;2.38;0.68;;;;;;;;;;5040374;28;20494;-69
2023/10/20 10:06:18;;;;;;;2.78;0.70;;;;;;;;;;5047464;28;20028;-69
2023/10/20 10:08:45;;;;;;;2.63;0.70;;;;;;;;;;5051239;28;20481;-69
2023/10/20 10:11:28;;;;;;;1.17;0.57;;;;;;;;;;5051291;28;20066;-69
2023/10/20 10:14:01;;;;;;;1.90;0.70;;;;;;;;;;5050093;28;20017;-69
2023/10/20 10:16:28;;;;;;;1.25;0.60;;;;;;;;;;5049539;28;20031;-69
2023/10/20 10:18:54;;;;;;;2.85;0.70;;;;;;;;;;5050797;28;20031;-69
2023/10/20 10:21:23;;;;;;;5.47;1.17;;;;;;;;;;5051072;28;20025;-69
2023/10/20 10:24:08;;;;;;;2.42;0.70;;;;;;;;;;5051182;28;20037;-69
2023/10/20 10:26:35;;;;;;;1.38;0.68;;;;;;;;;;5050963;28;20051;-69
2023/10/20 10:29:01;;;;;;;4.72;0.65;;;;;;;;;;5050319;28;20043;-69
2023/10/20 10:31:34;;;;;;;1.92;0.77;;;;;;;;;;5050352;28;20029;-69
2023/10/20 10:34:04;;;;;;;3.42;0.60;;;;;;;;;;5050395;28;20028;-68
2023/10/20 10:36:48;;;;;;;4.00;0.70;;;;;;;;;;5050811;28;20035;-68
2023/10/20 10:39:23;;;;;;;2.92;0.73;;;;;;;;;;5049679;28;20486;-68
2023/10/20 10:41:52;;;;;;;0.75;0.55;;;;;;;;;;5050700;28;20417;-68
2023/10/20 10:44:20;;;;;;;3.30;0.90;;;;;;;;;;5049642;28;20009;-68
2023/10/20 10:46:47;;;;;;;5.35;0.80;;;;;;;;;;5050829;28;20041;-68
2023/10/20 10:49:14;;;;;;;2.72;0.60;;;;;;;;;;5050683;28;20021;-68
2023/10/20 10:51:47;;;;;;;0.98;0.55;;;;;;;;;;5050871;28;20021;-68
2023/10/20 10:54:13;;;;;;;1.73;0.63;;;;;;;;;;5050943;28;20441;-68
2023/10/20 10:56:44;;;;;;;1.20;0.50;;;;;;;;;;5054177;28;20508;-70
2023/10/20 10:59:11;;;;;;;1.38;0.50;;;;;;;;;;5054570;28;20043;-68
2023/10/20 11:01:42;;;;;;;1.48;0.40;;;;;;;;;;5054554;28;20489;-68
2023/10/20 11:04:09;;;;;;;1.50;0.88;;;;;;;;;;5054415;28;20027;-70
2023/10/20 11:06:38;;;;;;;2.70;0.60;;;;;;;;;;5054813;28;20029;-70
2023/10/20 11:09:10;;;;;;;1.15;0.45;;;;;;;;;;5054787;28;20021;-68
2023/10/20 11:11:42;;;;;;;1.75;0.73;;;;;;;;;;5054052;28;20493;-70
2023/10/20 11:14:09;;;;;;;1.13;0.50;;;;;;;;;;5054590;28;20029;-68
2023/10/20 11:16:36;;;;;;;2.30;0.60;;;;;;;;;;5054412;28;20031;-70
2023/10/20 11:19:03;;;;;;;0.98;0.60;;;;;;;;;;5054273;28;20404;-70
2023/10/20 11:21:29;;;;;;;2.78;0.60;;;;;;;;;;5054539;28;20049;-70
2023/10/20 11:23:57;;;;;;;1.20;0.40;;;;;;;;;;5054555;28;20029;-71
2023/10/20 11:26:24;;;;;;;2.22;0.52;;;;;;;;;;5054624;28;20024;-70
2023/10/20 11:28:51;;;;;;;1.00;0.32;;;;;;;;;;5051708;28;20017;-70
2023/10/20 11:31:19;;;;;;;1.77;0.60;;;;;;;;;;5054199;28;20028;-70
2023/10/20 11:33:45;;;;;;;5.97;1.30;;;;;;;;;;5053319;28;20041;-70
2023/10/20 11:36:11;;;;;;;2.85;0.80;;;;;;;;;;5053973;28;20054;-70
2023/10/20 11:38:38;;;;;;;3.22;1.00;;;;;;;;;;5051561;28;20013;-70
2023/10/20 11:41:05;;;;;;;5.95;2.05;;;;;;;;;;5047938;28;20481;-70
2023/10/20 11:43:31;;;;;;;4.57;1.40;;;;;;;;;;5050686;28;20086;-69
2023/10/20 11:45:57;;;;;;;6.78;2.05;;;;;;;;;;5034142;28;20030;-70
2023/10/20 11:48:24;;;;;;;7.05;1.90;;;;;;;;;;5039114;28;20025;-70
2023/10/20 11:50:50;;;;;;;5.85;1.20;;;;;;;;;;5056353;28;20044;-70
2023/10/20 11:53:16;;;;;;;2.40;0.68;;;;;;;;;;5052568;28;20029;-70
2023/10/20 11:55:43;;;;;;;4.68;0.98;;;;;;;;;;5059397;28;20029;-70
2023/10/20 11:58:10;;;;;;;3.67;1.00;;;;;;;;;;5053228;28;20044;-70
2023/10/20 12:00:41;;;;;;;1.80;0.70;;;;;;;;;;5052518;28;20100;-70
2023/10/20 12:03:08;;;;;;;1.83;0.80;;;;;;;;;;5052866;28;20025;-70
2023/10/20 12:05:37;;;;;;;3.13;0.75;;;;;;;;;;5051238;28;20031;-70
2023/10/20 12:08:06;;;;;;;3.67;0.73;;;;;;;;;;5050266;28;20025;-70
2023/10/20 12:10:33;;;;;;;2.60;0.75;;;;;;;;;;5045105;28;20032;-70
2023/10/20 12:13:02;;;;;;;3.05;0.90;;;;;;;;;;5051922;28;20025;-70
2023/10/20 12:15:32;;;;;;;2.13;1.02;;;;;;;;;;5037923;28;20037;-70
2023/10/20 12:18:00;;;;;;;1.70;0.70;;;;;;;;;;5051098;28;20051;-69
2023/10/20 12:20:27;;;;;;;3.20;0.70;;;;;;;;;;5040702;28;20026;-70
2023/10/20 12:22:58;;;;;;;1.38;0.60;;;;;;;;;;5033368;28;20033;-70
2023/10/20 12:25:25;;;;;;;1.58;0.60;;;;;;;;;;5051405;28;20539;-69
2023/10/20 12:27:52;;;;;;;3.60;1.05;;;;;;;;;;5039317;28;20025;-69
2023/10/20 12:30:18;;;;;;;1.45;0.70;;;;;;;;;;5049788;28;20032;-68
2023/10/20 12:32:45;;;;;;;2.15;0.70;;;;;;;;;;5052820;28;20025;-70
2023/10/20 12:35:11;;;;;;;0.93;0.60;;;;;;;;;;5050594;28;20037;-70
2023/10/20 12:37:38;;;;;;;4.18;0.68;;;;;;;;;;5051993;28;20033;-69
2023/10/20 12:40:05;;;;;;;0.82;0.40;;;;;;;;;;5052673;28;20082;-69
2023/10/20 12:42:36;;;;;;;1.48;0.45;;;;;;;;;;5052526;28;20033;-69
2023/10/20 12:45:04;;;;;;;1.23;0.47;;;;;;;;;;5048335;28;20482;-70
2023/10/20 12:47:32;;;;;;;0.43;0.40;;;;;;;;;;5043250;28;20025;-70
2023/10/20 12:49:58;;;;;;;1.15;0.55;;;;;;;;;;5046840;28;20102;-70
2023/10/20 12:52:24;;;;;;;0.63;0.30;;;;;;;;;;5049137;28;20025;-68
2023/10/20 12:54:52;;;;;;;0.98;0.50;;;;;;;;;;5048108;28;20037;-69
2023/10/20 12:57:19;;;;;;;2.05;0.47;;;;;;;;;;5051122;28;20039;-70
2023/10/20 12:59:45;;;;;;;1.13;0.50;;;;;;;;;;5050065;28;20021;-69
2023/10/20 13:02:11;;;;;;;0.65;0.35;;;;;;;;;;5050817;28;20037;-69
2023/10/20 13:04:38;;;;;;;2.22;0.43;;;;;;;;;;5045704;28;20025;-68
2023/10/20 13:07:04;;;;;;;1.77;0.50;;;;;;;;;;5045284;28;20029;-69
2023/10/20 13:09:30;;;;;;;3.38;0.43;;;;;;;;;;5051076;28;20033;-70
2023/10/20 13:11:57;;;;;;;2.00;0.30;;;;;;;;;;5050334;28;20027;-69
2023/10/20 13:14:23;;;;;;;0.50;0.30;;;;;;;;;;5051938;28;20021;-69
2023/10/20 13:16:50;;;;;;;1.48;0.57;;;;;;;;;;5052031;28;20021;-68
2023/10/20 13:19:16;;;;;;;1.15;0.68;;;;;;;;;;5048169;28;20043;-67
2023/10/20 13:21:43;;;;;;;1.85;0.70;;;;;;;;;;5051583;28;20021;-68
2023/10/20 13:24:09;;;;;;;2.28;0.60;;;;;;;;;;5051766;28;20025;-68
2023/10/20 13:26:36;;;;;;;2.20;0.50;;;;;;;;;;5051737;28;20021;-68
2023/10/20 13:29:02;;;;;;;0.43;0.30;;;;;;;;;;5050801;28;20018;-71
2023/10/20 13:31:28;;;;;;;3.67;0.60;;;;;;;;;;5050792;28;20404;-69
2023/10/20 13:33:55;;;;;;;0.77;0.30;;;;;;;;;;5051525;28;20044;-69
2023/10/20 13:36:21;;;;;;;8.95;1.15;;;;;;;;;;5034632;28;20023;-70
2023/10/20 13:38:48;;;;;;;29.13;2.10;;;;;;;;;;5051365;28;20014;-68
2023/10/20 13:41:15;;;;;;;1.98;0.65;;;;;;;;;;5051444;28;20029;-67
2023/10/20 13:43:44;;;;;;;8.88;0.80;;;;;;;;;;5051544;28;20047;-69
2023/10/20 13:46:10;;;;;;;16.75;1.55;;;;;;;;;;5051642;28;20493;-69
2023/10/20 13:48:37;;;;;;;22.00;1.60;;;;;;;;;;5050893;28;20024;-68
2023/10/20 13:51:03;;;;;;;2.28;0.50;;;;;;;;;;5049710;28;20029;-69
2023/10/20 13:53:30;;;;;;;2.38;0.40;;;;;;;;;;5031484;28;20048;-69
2023/10/20 13:55:56;;;;;;;1.92;0.85;;;;;;;;;;5031016;28;20040;-68
2023/10/20 13:58:22;;;;;;;1.58;0.77;;;;;;;;;;5031427;28;20050;-68
2023/10/20 14:00:51;;;;;;;1.58;0.50;;;;;;;;;;5036638;28;20063;-69
2023/10/20 14:03:17;;;;;;;0.60;0.57;;;;;;;;;;5050158;28;20029;-69
2023/10/20 14:05:51;;;;;;;2.00;0.52;;;;;;;;;;5038428;28;20503;-68
2023/10/20 14:08:18;;;;;;;1.58;0.60;;;;;;;;;;5044876;28;20025;-69
2023/10/20 14:10:44;;;;;;;3.10;0.63;;;;;;;;;;5037221;28;20036;-69
2023/10/20 14:13:10;;;;;;;1.23;0.57;;;;;;;;;;5048332;28;20494;-69
2023/10/20 14:15:36;;;;;;;0.98;0.47;;;;;;;;;;5041967;28;20055;-68
2023/10/20 14:18:04;;;;;;;1.58;0.70;;;;;;;;;;5050572;28;20017;-69
2023/10/20 14:20:31;;;;;;;0.93;0.40;;;;;;;;;;5050715;28;20029;-68
2023/10/20 14:22:57;;;;;;;0.77;0.40;;;;;;;;;;5046160;28;20033;-69
2023/10/20 14:25:24;;;;;;;1.10;0.50;;;;;;;;;;5031001;28;20021;-69
2023/10/20 14:27:50;;;;;;;0.85;0.47;;;;;;;;;;5043578;28;20141;-69
2023/10/20 14:30:16;;;;;;;0.90;0.50;;;;;;;;;;5049080;28;20024;-69
2023/10/20 14:32:43;;;;;;;1.23;0.70;;;;;;;;;;5050176;28;20359;-69
2023/10/20 14:35:09;;;;;;;2.00;0.50;;;;;;;;;;5049706;28;20086;-68
2023/10/20 14:37:36;;;;;;;2.30;0.60;;;;;;;;;;5042001;28;20044;-69
2023/10/20 14:40:02;;;;;;;0.52;0.35;;;;;;;;;;5031336;28;20025;-69
2023/10/20 14:42:29;;;;;;;3.53;0.52;;;;;;;;;;5030841;28;20082;-69
2023/10/20 14:44:56;;;;;;;0.60;0.30;;;;;;;;;;5041018;28;20025;-69
2023/10/20 14:47:23;;;;;;;1.65;0.40;;;;;;;;;;5049744;28;20039;-69
2023/10/20 14:49:50;;;;;;;1.38;0.50;;;;;;;;;;5041318;28;20025;-69
2023/10/20 14:52:17;;;;;;;1.83;0.50;;;;;;;;;;5047306;28;20102;-69
2023/10/20 14:54:43;;;;;;;3.88;0.50;;;;;;;;;;5030865;28;20029;-69
2023/10/20 14:57:10;;;;;;;2.05;0.60;;;;;;;;;;5030893;28;20060;-69
2023/10/20 14:59:37;;;;;;;1.42;0.40;;;;;;;;;;5032554;28;20043;-68
2023/10/20 15:02:04;;;;;;;1.02;0.70;;;;;;;;;;5049486;28;20090;-69
2023/10/20 15:04:30;;;;;;;4.03;0.60;;;;;;;;;;5045682;28;20025;-69
2023/10/20 15:06:57;;;;;;;1.85;0.70;;;;;;;;;;5047953;28;20493;-70
2023/10/20 15:09:23;;;;;;;1.23;0.75;;;;;;;;;;5040232;28;20026;-69
2023/10/20 15:11:50;;;;;;;4.07;0.85;;;;;;;;;;5030982;28;20521;-69
2023/10/20 15:14:16;;;;;;;1.92;0.80;;;;;;;;;;5031499;28;20032;-69
2023/10/20 15:16:42;;;;;;;2.22;0.80;;;;;;;;;;5031137;28;20033;-69
2023/10/20 15:19:09;;;;;;;1.85;1.00;;;;;;;;;;5031380;28;20013;-69
2023/10/20 15:21:35;;;;;;;2.50;0.98;;;;;;;;;;5050231;28;20044;-70